Time;durP1;ratioP1;P1;durP2;ratioP2;P2;SDS_P1;SDS_P2;PMS_P1;PMS_P2;Temp;Humidity;BMP_temperature;BMP_pressure;BME280_temperature;BME280_humidity;BME280_pressure;Samples;Min_cycle;Max_cycle;Signal;HPM_P1;HPM_P2
2022/06/26 00:02:18;;;;;;;6.45;3.28;;;22.30;99.90;;;;;;5021673;28;20076;-70
2022/06/26 00:04:44;;;;;;;20.75;4.25;;;22.30;99.90;;;;;;5022466;28;20030;-70
2022/06/26 00:07:10;;;;;;;9.70;4.65;;;22.30;99.90;;;;;;5023139;28;20398;-69
2022/06/26 00:09:36;;;;;;;37.47;5.88;;;22.30;99.90;;;;;;5023637;28;20026;-68
2022/06/26 00:12:02;;;;;;;14.73;2.85;;;22.20;99.90;;;;;;5023033;28;20029;-71
2022/06/26 00:14:27;;;;;;;9.38;3.22;;;22.20;99.90;;;;;;5022912;28;20018;-69
2022/06/26 00:16:54;;;;;;;30.25;3.40;;;22.10;99.90;;;;;;5022515;28;20054;-71
2022/06/26 00:19:20;;;;;;;12.50;3.45;;;22.10;99.90;;;;;;5020562;28;20040;-70
2022/06/26 00:21:45;;;;;;;4.57;2.50;;;22.00;99.90;;;;;;5019521;28;20022;-69
2022/06/26 00:24:11;;;;;;;4.07;2.30;;;22.00;99.90;;;;;;5021552;28;20034;-70
2022/06/26 00:26:37;;;;;;;4.03;2.67;;;21.90;99.90;;;;;;5020308;28;20022;-71
2022/06/26 00:29:02;;;;;;;3.15;2.15;;;21.90;99.90;;;;;;5019970;28;20809;-71
2022/06/26 00:31:28;;;;;;;4.25;2.40;;;21.80;99.90;;;;;;5019692;28;20034;-71
2022/06/26 00:33:54;;;;;;;3.17;2.30;;;21.80;99.90;;;;;;5021338;28;20364;-70
2022/06/26 00:36:20;;;;;;;5.38;3.15;;;21.80;99.90;;;;;;5019581;28;20490;-70
2022/06/26 00:38:46;;;;;;;4.88;2.65;;;21.80;99.90;;;;;;5018827;28;20029;-71
2022/06/26 00:41:12;;;;;;;5.90;2.85;;;21.80;99.90;;;;;;5019557;28;20080;-72
2022/06/26 00:43:38;;;;;;;7.00;2.85;;;21.80;99.90;;;;;;5020162;28;20045;-71
2022/06/26 00:46:07;;;;;;;4.30;2.17;;;21.70;99.90;;;;;;5021135;28;20056;-72
2022/06/26 00:48:32;;;;;;;3.83;2.60;;;21.70;99.90;;;;;;5021887;28;20029;-70
2022/06/26 00:50:58;;;;;;;3.95;2.10;;;21.70;99.90;;;;;;5022330;28;20050;-70
2022/06/26 00:53:24;;;;;;;3.83;2.80;;;21.70;99.90;;;;;;5022020;28;20026;-71
2022/06/26 00:55:49;;;;;;;3.35;2.55;;;21.60;99.90;;;;;;5022245;28;20038;-71
2022/06/26 00:58:15;;;;;;;4.90;2.83;;;21.60;99.90;;;;;;5022072;28;20041;-71
2022/06/26 01:00:42;;;;;;;3.83;2.40;;;21.60;99.90;;;;;;5022010;28;20061;-71
2022/06/26 01:03:08;;;;;;;4.28;2.65;;;21.60;99.90;;;;;;5022621;28;20025;-71
2022/06/26 01:05:33;;;;;;;3.17;2.60;;;21.60;99.90;;;;;;5022762;28;20051;-71
2022/06/26 01:07:59;;;;;;;4.30;3.17;;;21.60;99.90;;;;;;5021630;28;20026;-71
2022/06/26 01:10:25;;;;;;;3.40;2.50;;;21.60;99.90;;;;;;5022186;28;20034;-70
2022/06/26 01:12:51;;;;;;;4.18;2.30;;;21.50;99.90;;;;;;5022054;28;20030;-70
2022/06/26 01:15:18;;;;;;;3.83;2.28;;;21.50;99.90;;;;;;5020456;28;20034;-69
2022/06/26 01:17:44;;;;;;;4.30;2.90;;;21.40;99.90;;;;;;5021138;28;20029;-72
2022/06/26 01:20:10;;;;;;;6.05;2.88;;;21.40;99.90;;;;;;5022163;28;20030;-70
2022/06/26 01:22:36;;;;;;;5.38;2.80;;;21.30;99.90;;;;;;5021929;28;20125;-71
2022/06/26 01:25:03;;;;;;;5.15;3.25;;;21.30;99.90;;;;;;5022245;28;20034;-70
2022/06/26 01:27:29;;;;;;;4.57;2.95;;;21.30;99.90;;;;;;5021695;28;20030;-71
2022/06/26 01:29:55;;;;;;;6.65;3.38;;;21.20;99.90;;;;;;5021519;28;20032;-70
2022/06/26 01:32:20;;;;;;;2.70;2.50;;;21.20;99.90;;;;;;5021859;28;20030;-71
2022/06/26 01:34:46;;;;;;;5.03;3.40;;;21.10;99.90;;;;;;5021822;28;20030;-70
2022/06/26 01:37:12;;;;;;;5.85;3.67;;;21.10;99.90;;;;;;5021343;28;20038;-71
2022/06/26 01:39:38;;;;;;;4.53;3.13;;;21.10;99.90;;;;;;5021756;28;20421;-71
2022/06/26 01:42:04;;;;;;;3.80;2.80;;;21.00;99.90;;;;;;5021843;28;20029;-71
2022/06/26 01:44:30;;;;;;;4.47;3.00;;;21.00;99.90;;;;;;5021605;28;20592;-70
2022/06/26 01:46:56;;;;;;;4.45;3.10;;;21.00;99.90;;;;;;5021394;28;20129;-71
2022/06/26 01:49:23;;;;;;;4.90;3.38;;;20.90;99.90;;;;;;5021642;28;20086;-70
2022/06/26 01:51:48;;;;;;;6.70;3.67;;;20.80;99.90;;;;;;5021857;28;20055;-70
2022/06/26 01:54:16;;;;;;;4.82;2.67;;;20.80;99.90;;;;;;5021998;28;20038;-71
2022/06/26 01:56:43;;;;;;;8.57;3.60;;;20.80;99.90;;;;;;5025169;28;20041;-70
2022/06/26 01:59:09;;;;;;;5.72;3.35;;;20.70;99.90;;;;;;5025834;28;20040;-73
2022/06/26 02:01:35;;;;;;;5.97;3.60;;;20.70;99.90;;;;;;5025871;28;20037;-70
2022/06/26 02:04:01;;;;;;;5.03;3.05;;;20.70;99.90;;;;;;5025504;28;20022;-70
2022/06/26 02:06:30;;;;;;;5.22;3.25;;;20.60;99.90;;;;;;5025827;28;20033;-72
2022/06/26 02:08:56;;;;;;;5.78;3.17;;;20.50;99.90;;;;;;5025705;28;20128;-70
2022/06/26 02:14:06;;;;;;;7.35;3.45;;;20.40;99.90;;;;;;5025982;28;20036;-71
2022/06/26 02:16:32;;;;;;;4.32;3.10;;;20.40;99.90;;;;;;5025032;28;20495;-70
2022/06/26 02:18:58;;;;;;;7.50;3.53;;;20.30;99.90;;;;;;5025158;28;20637;-70
2022/06/26 02:21:28;;;;;;;4.80;3.47;;;20.30;99.90;;;;;;5025187;28;20021;-70
2022/06/26 02:23:54;;;;;;;5.72;3.78;;;20.30;99.90;;;;;;5025213;28;20057;-70
2022/06/26 02:26:20;;;;;;;8.23;3.97;;;20.20;99.90;;;;;;5024034;28;20022;-70
2022/06/26 02:28:47;;;;;;;5.03;3.38;;;20.30;99.90;;;;;;5025505;28;20022;-71
2022/06/26 02:31:13;;;;;;;6.28;3.33;;;20.20;99.90;;;;;;5025225;28;20057;-70
2022/06/26 02:33:38;;;;;;;5.57;3.83;;;20.20;99.90;;;;;;5024561;28;20014;-71
2022/06/26 02:36:06;;;;;;;5.50;3.83;;;20.10;99.90;;;;;;5025255;28;20044;-70
2022/06/26 02:38:33;;;;;;;5.32;3.50;;;20.10;99.90;;;;;;5024900;28;20026;-72
2022/06/26 02:40:58;;;;;;;6.85;4.10;;;20.00;99.90;;;;;;5024090;28;20038;-70
2022/06/26 02:43:24;;;;;;;5.85;3.75;;;20.00;99.90;;;;;;5024840;28;20022;-71
2022/06/26 02:45:53;;;;;;;5.18;3.53;;;20.00;99.90;;;;;;5024515;28;20172;-71
2022/06/26 02:48:20;;;;;;;18.55;4.10;;;19.90;99.90;;;;;;5024067;28;20524;-70
2022/06/26 02:50:47;;;;;;;9.95;3.65;;;19.90;99.90;;;;;;5024356;28;20022;-72
2022/06/26 02:53:12;;;;;;;6.10;4.05;;;19.90;99.90;;;;;;5024353;28;20544;-71
2022/06/26 02:55:38;;;;;;;7.15;3.55;;;19.80;99.90;;;;;;5024216;28;20080;-72
2022/06/26 02:58:04;;;;;;;10.05;4.35;;;19.90;99.90;;;;;;5025028;28;20068;-71
2022/06/26 03:00:30;;;;;;;9.63;4.72;;;19.80;99.90;;;;;;5023385;28;20026;-70
2022/06/26 03:02:55;;;;;;;11.95;3.60;;;19.80;99.90;;;;;;5024395;28;20026;-70
2022/06/26 03:05:21;;;;;;;7.10;3.85;;;19.80;99.90;;;;;;5024666;28;20026;-72
2022/06/26 03:07:46;;;;;;;5.88;3.55;;;19.80;99.90;;;;;;5023332;28;20059;-70
2022/06/26 03:10:13;;;;;;;6.40;3.85;;;19.70;99.90;;;;;;5023570;28;20033;-71
2022/06/26 03:12:43;;;;;;;13.63;3.90;;;19.80;99.90;;;;;;5024210;28;20092;-71
2022/06/26 03:15:09;;;;;;;6.78;4.38;;;19.80;99.90;;;;;;5024010;28;20038;-70
2022/06/26 03:17:34;;;;;;;6.25;3.95;;;19.80;99.90;;;;;;5024538;28;20045;-69
2022/06/26 03:20:00;;;;;;;10.10;4.47;;;19.80;99.90;;;;;;5024208;28;20022;-70
2022/06/26 03:22:25;;;;;;;7.10;4.15;;;19.70;99.90;;;;;;5023978;28;20029;-70
2022/06/26 03:24:52;;;;;;;13.45;4.10;;;19.80;99.90;;;;;;5023992;28;20100;-72
2022/06/26 03:27:17;;;;;;;5.68;3.65;;;19.70;99.90;;;;;;5022833;28;20022;-70
2022/06/26 03:29:43;;;;;;;7.30;4.32;;;19.80;99.90;;;;;;5023755;28;20058;-72
2022/06/26 03:32:08;;;;;;;7.15;4.38;;;19.80;99.90;;;;;;5024112;28;20044;-71
2022/06/26 03:34:34;;;;;;;8.93;4.25;;;19.80;99.90;;;;;;5024252;28;20152;-72
2022/06/26 03:36:59;;;;;;;6.63;3.95;;;19.80;99.90;;;;;;5023332;28;20045;-71
2022/06/26 03:39:25;;;;;;;11.88;4.35;;;19.70;99.90;;;;;;5022506;28;20033;-70
2022/06/26 03:42:02;;;;;;;7.43;4.10;;;19.70;99.90;;;;;;5022674;28;20038;-71
2022/06/26 03:44:30;;;;;;;12.02;4.68;;;19.70;99.90;;;;;;5023396;28;20034;-70
2022/06/26 03:46:57;;;;;;;7.60;4.63;;;19.60;99.90;;;;;;5023663;28;20746;-71
2022/06/26 03:49:23;;;;;;;5.43;3.80;;;19.60;99.90;;;;;;5023506;28;20020;-69
2022/06/26 03:51:49;;;;;;;8.02;4.32;;;19.60;99.90;;;;;;5023352;28;20041;-70
2022/06/26 03:54:14;;;;;;;5.82;3.67;;;19.60;99.90;;;;;;5023757;28;20056;-70
2022/06/26 03:56:40;;;;;;;8.23;4.47;;;19.60;99.90;;;;;;5022074;28;20062;-71
2022/06/26 03:59:06;;;;;;;7.97;4.80;;;19.60;99.90;;;;;;5023725;28;20025;-70
2022/06/26 04:01:32;;;;;;;6.05;3.80;;;19.60;99.90;;;;;;5023472;28;20048;-69
2022/06/26 04:03:57;;;;;;;8.25;4.25;;;19.60;99.90;;;;;;5023190;28;20441;-71
2022/06/26 04:06:23;;;;;;;7.20;4.53;;;19.70;99.90;;;;;;5023729;28;20034;-70
2022/06/26 04:08:49;;;;;;;6.93;4.35;;;19.70;99.90;;;;;;5023172;28;20090;-71
2022/06/26 04:11:15;;;;;;;6.25;4.05;;;19.70;99.90;;;;;;5022965;28;20022;-70
2022/06/26 04:13:42;;;;;;;8.57;5.18;;;19.70;99.90;;;;;;5023287;28;20026;-72
2022/06/26 04:16:09;;;;;;;4.88;3.58;;;19.70;99.90;;;;;;5022524;28;20133;-69
2022/06/26 04:18:35;;;;;;;6.60;4.55;;;19.70;99.90;;;;;;5022777;28;20450;-70
2022/06/26 04:21:01;;;;;;;5.30;3.63;;;19.70;99.90;;;;;;5023214;28;20034;-70
2022/06/26 04:23:27;;;;;;;5.38;3.92;;;19.70;99.90;;;;;;5023193;28;20496;-70
2022/06/26 04:25:53;;;;;;;7.07;4.30;;;19.70;99.90;;;;;;5022948;28;20036;-70
2022/06/26 04:28:18;;;;;;;8.45;4.80;;;19.70;99.90;;;;;;5021612;28;20097;-70
2022/06/26 04:30:44;;;;;;;5.13;3.50;;;19.70;99.90;;;;;;5019675;28;20054;-72
2022/06/26 04:33:10;;;;;;;5.75;3.53;;;19.70;99.90;;;;;;5021515;28;20025;-69
2022/06/26 04:35:36;;;;;;;6.03;3.97;;;19.80;99.90;;;;;;5022115;28;20030;-70
2022/06/26 04:38:02;;;;;;;10.27;3.70;;;19.80;99.90;;;;;;5022346;28;20025;-70
2022/06/26 04:40:29;;;;;;;6.93;3.85;;;19.80;99.90;;;;;;5018297;28;20380;-70
2022/06/26 04:42:55;;;;;;;6.65;3.45;;;19.80;99.90;;;;;;5018186;28;20037;-70
2022/06/26 04:45:21;;;;;;;4.35;3.58;;;19.90;99.90;;;;;;5020935;28;20060;-69
2022/06/26 04:47:47;;;;;;;6.20;4.30;;;20.00;99.90;;;;;;5020300;28;20042;-70
2022/06/26 04:50:13;;;;;;;6.80;3.92;;;20.00;99.90;;;;;;5020989;28;20042;-70
2022/06/26 04:52:44;;;;;;;15.15;4.10;;;20.00;99.90;;;;;;5022340;28;20021;-70
2022/06/26 04:55:10;;;;;;;5.65;3.40;;;20.10;99.90;;;;;;5020811;28;20524;-70
2022/06/26 04:57:36;;;;;;;6.07;3.78;;;20.10;99.90;;;;;;5021528;28;20057;-69
2022/06/26 05:00:04;;;;;;;6.25;3.67;;;20.10;99.90;;;;;;5019750;28;20037;-68
2022/06/26 05:02:30;;;;;;;5.63;3.00;;;20.10;99.90;;;;;;5021460;28;20097;-68
2022/06/26 05:04:55;;;;;;;8.23;4.22;;;20.10;99.90;;;;;;5019027;28;20046;-69
2022/06/26 05:07:21;;;;;;;3.90;2.75;;;20.10;99.90;;;;;;5021727;28;20034;-67
2022/06/26 05:09:46;;;;;;;5.38;3.58;;;20.30;99.90;;;;;;5013282;28;20524;-71
2022/06/26 05:12:12;;;;;;;12.27;3.25;;;20.30;99.90;;;;;;5013372;28;20036;-69
2022/06/26 05:14:40;;;;;;;14.93;4.15;;;20.30;99.90;;;;;;5021507;28;20022;-70
2022/06/26 05:17:06;;;;;;;5.10;3.00;;;20.40;99.90;;;;;;5022579;28;20037;-71
2022/06/26 05:19:31;;;;;;;5.93;3.08;;;20.40;99.90;;;;;;5021590;28;20025;-70
2022/06/26 05:21:57;;;;;;;5.07;3.00;;;20.50;99.90;;;;;;5021647;28;20037;-70
2022/06/26 05:24:23;;;;;;;3.45;2.42;;;20.60;99.90;;;;;;5017804;28;20036;-70
2022/06/26 05:26:48;;;;;;;5.25;2.80;;;20.60;99.90;;;;;;5019522;28;20096;-69
2022/06/26 05:29:14;;;;;;;4.60;2.92;;;20.70;99.90;;;;;;5021347;28;20076;-74
2022/06/26 05:31:40;;;;;;;3.33;2.85;;;20.70;99.90;;;;;;5019843;28;20671;-71
2022/06/26 05:34:06;;;;;;;3.88;2.75;;;20.80;99.90;;;;;;5020208;28;20051;-69
2022/06/26 05:36:32;;;;;;;5.05;2.50;;;20.80;99.90;;;;;;5021959;28;20040;-70
2022/06/26 05:38:58;;;;;;;6.07;3.10;;;20.90;99.90;;;;;;5021273;28;20045;-72
2022/06/26 05:41:23;;;;;;;6.03;3.42;;;21.00;99.90;;;;;;5019744;28;20094;-69
2022/06/26 05:43:49;;;;;;;3.55;2.83;;;21.00;99.90;;;;;;5020690;28;20049;-69
2022/06/26 05:46:14;;;;;;;4.25;2.40;;;21.00;99.90;;;;;;5021540;28;20049;-69
2022/06/26 05:48:41;;;;;;;5.95;2.22;;;21.10;99.90;;;;;;5019516;28;20029;-69
2022/06/26 05:51:07;;;;;;;5.03;2.60;;;21.20;99.90;;;;;;5018007;28;20105;-69
2022/06/26 05:53:32;;;;;;;8.10;2.78;;;21.20;99.90;;;;;;5019499;28;20062;-70
2022/06/26 05:55:58;;;;;;;8.05;3.08;;;21.30;99.90;;;;;;5019165;28;20117;-72
2022/06/26 05:58:23;;;;;;;3.83;2.35;;;21.30;99.90;;;;;;5019966;28;20069;-69
2022/06/26 06:00:49;;;;;;;14.30;2.90;;;21.40;99.90;;;;;;5020496;28;20025;-71
2022/06/26 06:03:14;;;;;;;4.50;2.05;;;21.40;99.90;;;;;;5020539;28;20018;-70
2022/06/26 06:05:40;;;;;;;9.45;2.05;;;21.40;99.90;;;;;;5022159;28;20030;-70
2022/06/26 06:08:06;;;;;;;3.83;2.50;;;21.40;99.90;;;;;;5020062;28;20038;-70
2022/06/26 06:10:31;;;;;;;6.95;2.70;;;21.40;99.90;;;;;;5020804;28;20030;-71
2022/06/26 06:12:57;;;;;;;2.67;1.77;;;21.50;99.90;;;;;;5020357;28;20428;-71
2022/06/26 06:15:24;;;;;;;6.07;2.65;;;21.50;99.90;;;;;;5021238;28;20029;-71
2022/06/26 06:17:49;;;;;;;3.50;2.45;;;21.70;99.90;;;;;;5019641;28;20044;-69
2022/06/26 06:20:20;;;;;;;5.82;3.25;;;21.80;99.90;;;;;;5020082;28;20050;-72
2022/06/26 06:22:54;;;;;;;6.95;2.70;;;21.80;99.90;;;;;;5021335;28;20048;-70
2022/06/26 06:25:23;;;;;;;4.22;2.85;;;21.90;99.90;;;;;;5020959;28;20045;-71
2022/06/26 06:27:49;;;;;;;4.40;2.65;;;21.90;99.90;;;;;;5021401;28;20033;-70
2022/06/26 06:30:16;;;;;;;5.85;2.88;;;22.00;99.90;;;;;;5021071;28;20034;-71
2022/06/26 06:32:55;;;;;;;4.80;3.25;;;22.10;99.90;;;;;;5019072;28;20022;-73
2022/06/26 06:35:20;;;;;;;9.40;3.15;;;22.10;99.90;;;;;;5021047;28;20064;-69
2022/06/26 06:37:46;;;;;;;5.32;3.05;;;22.20;99.90;;;;;;5018099;28;20045;-70
2022/06/26 06:40:14;;;;;;;6.65;3.85;;;22.30;99.90;;;;;;5020125;28;20029;-71
2022/06/26 06:42:41;;;;;;;4.97;3.20;;;22.40;99.90;;;;;;5023487;28;20038;-70
2022/06/26 06:45:08;;;;;;;9.55;2.97;;;22.50;99.90;;;;;;5023426;28;20057;-71
2022/06/26 06:47:35;;;;;;;5.78;3.75;;;22.60;99.90;;;;;;5023720;28;20037;-70
2022/06/26 06:50:01;;;;;;;8.60;3.60;;;22.60;99.90;;;;;;5021699;28;20022;-71
2022/06/26 06:52:27;;;;;;;8.32;4.43;;;22.70;99.90;;;;;;5022185;28;20073;-70
2022/06/26 06:54:53;;;;;;;5.80;3.60;;;22.80;99.90;;;;;;5023380;28;20037;-72
2022/06/26 06:57:22;;;;;;;8.82;4.05;;;22.80;99.90;;;;;;5023091;28;20049;-70
2022/06/26 06:59:48;;;;;;;6.85;3.50;;;22.90;99.90;;;;;;5021237;28;20026;-71
2022/06/26 07:02:13;;;;;;;9.05;3.38;;;22.90;99.90;;;;;;5022797;28;20026;-70
2022/06/26 07:04:39;;;;;;;5.47;3.50;;;22.90;99.90;;;;;;5024162;28;20018;-72
2022/06/26 07:07:05;;;;;;;9.90;3.63;;;23.00;99.90;;;;;;5022809;28;20401;-70
2022/06/26 07:09:31;;;;;;;5.85;3.55;;;23.00;99.90;;;;;;5022537;28;20508;-72
2022/06/26 07:11:56;;;;;;;11.18;3.95;;;23.00;99.90;;;;;;5024432;28;20057;-70
2022/06/26 07:14:22;;;;;;;7.68;3.15;;;22.90;99.90;;;;;;5020586;28;20034;-71
2022/06/26 07:16:49;;;;;;;6.10;2.92;;;22.90;99.90;;;;;;5022987;28;20060;-71
2022/06/26 07:19:18;;;;;;;4.88;3.25;;;22.70;99.90;;;;;;5023005;28;20053;-68
2022/06/26 07:21:44;;;;;;;12.73;3.75;;;22.70;99.90;;;;;;5024315;28;20029;-72
2022/06/26 07:24:13;;;;;;;6.53;4.30;;;22.60;99.90;;;;;;5024689;28;20030;-69
2022/06/26 07:26:40;;;;;;;7.82;4.20;;;22.50;99.90;;;;;;5023218;28;20391;-69
2022/06/26 07:29:07;;;;;;;4.43;3.28;;;22.40;99.90;;;;;;5024131;28;20028;-70
2022/06/26 07:31:33;;;;;;;7.18;4.18;;;22.40;99.90;;;;;;5023742;28;21331;-69
2022/06/26 07:34:17;;;;;;;5.78;3.95;;;22.40;99.90;;;;;;5023806;28;20021;-69
2022/06/26 07:36:45;;;;;;;8.77;4.97;;;22.30;99.90;;;;;;5023313;28;20094;-71
2022/06/26 07:39:15;;;;;;;9.63;4.60;;;22.30;99.90;;;;;;5022301;28;20030;-68
2022/06/26 07:41:45;;;;;;;7.82;3.90;;;22.30;99.90;;;;;;5021893;28;20078;-69
2022/06/26 07:44:11;;;;;;;7.47;3.70;;;22.30;99.90;;;;;;5022660;28;20030;-70
2022/06/26 07:46:37;;;;;;;11.27;5.20;;;22.20;99.90;;;;;;5023573;28;20064;-70
2022/06/26 07:49:04;;;;;;;8.88;4.65;;;22.20;99.90;;;;;;5024100;28;20030;-71
2022/06/26 07:51:30;;;;;;;8.43;4.60;;;22.20;99.90;;;;;;5023422;28;20113;-70
2022/06/26 07:53:56;;;;;;;11.30;5.95;;;22.30;99.90;;;;;;5021359;28;20030;-71
2022/06/26 07:56:22;;;;;;;11.35;5.30;;;22.30;99.90;;;;;;5014509;28;20118;-72
2022/06/26 07:58:48;;;;;;;8.90;4.97;;;22.30;99.90;;;;;;5017856;28;20026;-69
2022/06/26 08:01:14;;;;;;;10.82;5.55;;;22.20;99.90;;;;;;5023026;28;20029;-72
2022/06/26 08:03:40;;;;;;;7.22;4.88;;;22.20;99.90;;;;;;5022806;28;20033;-71
2022/06/26 08:06:05;;;;;;;8.93;5.28;;;22.20;99.90;;;;;;5022581;28;20026;-69
2022/06/26 08:08:31;;;;;;;11.10;6.38;;;22.30;99.90;;;;;;5022004;28;20045;-69
2022/06/26 08:10:57;;;;;;;9.88;4.28;;;22.40;99.90;;;;;;5021883;28;20088;-69
2022/06/26 08:13:22;;;;;;;8.07;4.63;;;22.50;99.90;;;;;;5021975;28;20022;-72
2022/06/26 08:15:48;;;;;;;7.72;5.13;;;22.70;99.90;;;;;;5021603;28;20097;-71
2022/06/26 08:18:13;;;;;;;9.07;5.20;;;22.80;99.90;;;;;;5022823;28;20029;-71
2022/06/26 08:20:39;;;;;;;8.73;4.43;;;22.90;99.90;;;;;;5023175;28;20101;-70
2022/06/26 08:23:05;;;;;;;8.32;5.03;;;22.90;99.90;;;;;;5022233;28;20029;-71
2022/06/26 08:25:31;;;;;;;6.93;4.45;;;23.00;99.90;;;;;;5023472;28;20025;-72
2022/06/26 08:27:57;;;;;;;8.65;5.20;;;23.00;99.90;;;;;;5020700;28;20030;-70
2022/06/26 08:30:22;;;;;;;7.93;4.95;;;23.00;99.90;;;;;;5022271;28;20034;-71
2022/06/26 08:32:48;;;;;;;8.32;5.22;;;23.00;99.90;;;;;;5021414;28;20073;-69
2022/06/26 08:35:15;;;;;;;8.30;4.68;;;23.00;99.90;;;;;;5020870;28;20029;-70
2022/06/26 08:37:41;;;;;;;7.75;4.80;;;23.10;99.90;;;;;;5023011;28;20096;-74
2022/06/26 08:40:07;;;;;;;9.57;5.07;;;23.20;99.90;;;;;;5020618;28;20038;-70
2022/06/26 08:42:38;;;;;;;8.10;4.55;;;23.30;99.90;;;;;;5022609;28;20041;-70
2022/06/26 08:45:08;;;;;;;5.10;3.53;;;23.30;99.90;;;;;;5021450;28;20030;-69
2022/06/26 08:47:41;;;;;;;9.65;5.05;;;23.50;99.90;;;;;;5021469;28;20030;-70
2022/06/26 08:50:09;;;;;;;;;;;23.70;99.90;;;;;;5020614;28;20029;-71
2022/06/26 08:52:38;;;;;;;8.70;3.85;;;23.70;99.90;;;;;;5021410;28;19913;-71
2022/06/26 08:55:04;;;;;;;8.90;4.13;;;23.70;99.90;;;;;;5022154;28;20026;-71
2022/06/26 08:57:33;;;;;;;8.25;3.65;;;23.70;99.90;;;;;;5020144;28;20053;-70
2022/06/26 08:59:59;;;;;;;5.20;3.83;;;23.60;99.90;;;;;;5021386;28;20657;-70
2022/06/26 09:02:25;;;;;;;6.90;3.60;;;23.60;99.90;;;;;;5020320;28;20024;-71
2022/06/26 09:04:51;;;;;;;7.15;2.97;;;23.70;99.90;;;;;;5021184;28;20081;-71
2022/06/26 09:07:18;;;;;;;4.47;3.05;;;23.70;99.90;;;;;;5016414;28;20034;-69
2022/06/26 09:09:44;;;;;;;5.00;2.65;;;23.80;99.90;;;;;;5020990;28;20018;-69
2022/06/26 09:12:12;;;;;;;3.28;1.73;;;23.90;99.90;;;;;;5017042;28;20041;-69
2022/06/26 09:14:38;;;;;;;4.88;3.15;;;24.00;99.90;;;;;;5021935;28;20084;-72
2022/06/26 09:17:05;;;;;;;4.47;2.10;;;24.10;99.90;;;;;;5019619;28;20046;-70
2022/06/26 09:19:38;;;;;;;11.05;2.35;;;24.20;99.90;;;;;;5016306;28;20101;-70
2022/06/26 09:22:10;;;;;;;2.72;2.00;;;24.20;99.90;;;;;;5016864;28;20648;-72
2022/06/26 09:24:38;;;;;;;3.15;1.60;;;24.30;99.90;;;;;;5019741;28;20025;-71
2022/06/26 09:27:15;;;;;;;3.65;1.27;;;24.30;99.90;;;;;;5018920;28;20034;-70
2022/06/26 09:29:47;;;;;;;1.98;1.20;;;24.50;99.90;;;;;;5019818;28;20021;-72
2022/06/26 09:32:14;;;;;;;2.10;1.20;;;24.40;99.90;;;;;;5021242;28;20078;-70
2022/06/26 09:34:49;;;;;;;1.20;1.10;;;24.50;99.90;;;;;;5020087;28;20048;-70
2022/06/26 09:37:15;;;;;;;2.88;1.73;;;24.50;99.90;;;;;;5017731;28;20046;-70
2022/06/26 09:39:42;;;;;;;2.17;1.48;;;24.50;99.90;;;;;;5019331;28;20033;-70
2022/06/26 09:42:18;;;;;;;1.95;1.30;;;24.60;99.90;;;;;;5019376;28;20038;-70
2022/06/26 09:44:46;;;;;;;4.72;0.98;;;24.70;99.90;;;;;;5016051;28;20053;-73
2022/06/26 09:47:22;;;;;;;0.82;0.80;;;24.80;99.90;;;;;;5010227;28;20105;-71
2022/06/26 09:49:51;;;;;;;2.33;1.42;;;24.80;99.90;;;;;;5019637;28;20034;-71
2022/06/26 09:52:17;;;;;;;3.70;1.48;;;24.80;99.90;;;;;;5020546;28;20030;-70
2022/06/26 09:54:44;;;;;;;1.48;1.10;;;24.80;99.90;;;;;;5021640;28;20025;-72
2022/06/26 09:57:11;;;;;;;3.75;1.55;;;24.80;99.90;;;;;;5021007;28;20045;-70
2022/06/26 09:59:39;;;;;;;2.40;1.05;;;24.90;99.90;;;;;;5021552;28;20062;-70
2022/06/26 10:07:35;;;;;;;1.10;0.80;;;24.70;99.90;;;;;;5018976;28;20040;-70
2022/06/26 10:10:02;;;;;;;2.10;0.98;;;24.80;99.90;;;;;;5018768;28;20026;-69
2022/06/26 10:12:27;;;;;;;2.00;0.85;;;24.80;99.90;;;;;;5017824;28;20564;-69
2022/06/26 10:14:55;;;;;;;0.90;0.68;;;25.00;99.90;;;;;;5020548;28;20310;-71
2022/06/26 10:17:47;;;;;;;1.70;1.00;;;25.20;99.90;;;;;;5021552;28;20511;-69
2022/06/26 10:20:19;;;;;;;2.13;0.88;;;25.20;99.90;;;;;;5022731;28;20029;-73
2022/06/26 10:22:45;;;;;;;0.77;0.65;;;25.30;99.90;;;;;;5018077;28;20038;-70
2022/06/26 10:25:23;;;;;;;0.93;0.57;;;25.40;99.90;;;;;;5024296;28;20117;-73
2022/06/26 10:27:48;;;;;;;1.42;0.73;;;25.50;99.90;;;;;;5023706;28;20057;-70
2022/06/26 10:30:16;;;;;;;1.45;0.80;;;25.50;99.90;;;;;;5022634;28;20044;-71
2022/06/26 10:32:46;;;;;;;1.35;0.55;;;25.40;99.90;;;;;;5023667;28;20116;-69
2022/06/26 10:35:13;;;;;;;1.15;0.60;;;25.20;99.90;;;;;;5024000;28;20111;-69
2022/06/26 10:37:50;;;;;;;5.00;0.80;;;25.20;99.90;;;;;;5024621;28;20370;-69
2022/06/26 10:43:13;;;;;;;1.45;0.45;;;25.30;99.90;;;;;;5020624;28;20389;-72
2022/06/26 10:45:40;;;;;;;0.55;0.40;;;25.20;99.90;;;;;;5023717;28;20056;-72
2022/06/26 10:48:27;;;;;;;1.13;0.50;;;25.30;99.90;;;;;;5022584;28;20030;-68
2022/06/26 10:51:03;;;;;;;1.25;0.75;;;25.50;99.90;;;;;;5023221;28;20050;-68
2022/06/26 10:53:31;;;;;;;1.10;0.68;;;25.90;99.90;;;;;;5024932;28;20026;-69
2022/06/26 10:55:59;;;;;;;1.23;0.63;;;26.10;99.90;;;;;;5023482;28;20474;-70
2022/06/26 10:58:35;;;;;;;1.02;0.73;;;26.40;99.90;;;;;;5022880;28;20057;-69
2022/06/26 11:01:03;;;;;;;0.80;0.60;;;26.40;99.90;;;;;;5021811;28;20117;-68
2022/06/26 11:03:29;;;;;;;1.85;0.90;;;26.30;99.90;;;;;;5021713;28;20037;-69
2022/06/26 11:06:03;;;;;;;1.00;0.80;;;26.20;99.90;;;;;;5022910;28;20033;-69
2022/06/26 11:08:38;;;;;;;1.20;0.80;;;26.30;99.90;;;;;;5024839;28;20026;-71
2022/06/26 11:11:08;;;;;;;0.60;0.45;;;26.60;99.90;;;;;;5023450;28;20049;-70
2022/06/26 11:13:35;;;;;;;4.28;1.35;;;26.80;99.90;;;;;;5021324;28;20128;-71
2022/06/26 11:16:03;;;;;;;3.90;0.70;;;26.90;99.90;;;;;;5022934;28;20033;-72
2022/06/26 11:18:36;;;;;;;0.80;0.68;;;26.90;99.90;;;;;;5022513;28;20030;-72
2022/06/26 11:21:02;;;;;;;0.68;0.65;;;27.00;99.90;;;;;;5023136;28;20032;-70
2022/06/26 11:23:34;;;;;;;1.55;0.60;;;27.30;99.90;;;;;;5022879;28;20041;-71
2022/06/26 11:26:11;;;;;;;0.50;0.47;;;27.50;99.90;;;;;;5019688;28;20033;-73
2022/06/26 11:28:43;;;;;;;0.82;0.75;;;27.70;99.90;;;;;;5023420;28;20084;-70
2022/06/26 11:31:20;;;;;;;8.48;0.80;;;27.70;99.90;;;;;;5022421;28;20323;-74
2022/06/26 11:33:45;;;;;;;0.70;0.70;;;27.60;99.90;;;;;;5022708;28;20033;-70
2022/06/26 11:36:13;;;;;;;1.27;0.68;;;27.40;99.90;;;;;;5022947;28;20041;-72
2022/06/26 11:38:48;;;;;;;0.85;0.60;;;27.10;99.90;;;;;;5023320;28;20056;-72
2022/06/26 11:41:14;;;;;;;0.70;0.68;;;26.70;99.90;;;;;;5023957;28;20014;-71
2022/06/26 11:43:48;;;;;;;1.25;0.82;;;26.30;99.90;;;;;;5023849;28;20041;-72
2022/06/26 11:46:14;;;;;;;;;;;26.10;99.90;;;;;;5023142;28;20104;-70
2022/06/26 11:48:40;;;;;;;1.52;0.95;;;26.00;99.90;;;;;;5021530;28;19910;-71
2022/06/26 11:51:06;;;;;;;1.10;0.55;;;25.80;99.90;;;;;;5023259;28;20030;-72
2022/06/26 11:53:33;;;;;;;13.10;1.08;;;25.80;99.90;;;;;;5022854;28;20085;-69
2022/06/26 11:56:02;;;;;;;0.57;0.55;;;25.80;99.90;;;;;;5023776;28;20041;-69
2022/06/26 11:58:30;;;;;;;1.25;0.63;;;25.80;99.90;;;;;;5023467;28;20026;-71
2022/06/26 12:01:11;;;;;;;0.82;0.63;;;25.90;99.90;;;;;;5022692;28;20034;-70
2022/06/26 12:03:49;;;;;;;0.93;0.60;;;26.00;99.90;;;;;;5023413;28;20029;-71
2022/06/26 12:06:31;;;;;;;2.00;0.80;;;26.00;99.90;;;;;;5021099;28;20045;-70
2022/06/26 12:09:19;;;;;;;0.60;0.57;;;25.90;99.90;;;;;;5020585;28;20041;-72
2022/06/26 12:11:47;;;;;;;1.02;0.77;;;25.90;99.90;;;;;;5019668;28;20249;-69
2022/06/26 12:14:19;;;;;;;0.80;0.65;;;25.70;99.90;;;;;;5019802;28;20389;-70
2022/06/26 12:16:49;;;;;;;3.35;1.05;;;25.70;99.90;;;;;;5021359;28;20502;-72
2022/06/26 12:19:15;;;;;;;1.65;0.77;;;25.90;99.90;;;;;;5019617;28;20073;-69
2022/06/26 12:21:45;;;;;;;1.15;1.00;;;25.90;99.90;;;;;;5022017;28;20032;-70
2022/06/26 12:24:13;;;;;;;0.65;0.35;;;26.00;99.90;;;;;;5022208;28;20022;-70
2022/06/26 12:26:40;;;;;;;1.15;0.70;;;26.10;99.90;;;;;;5022627;28;20474;-68
2022/06/26 12:29:15;;;;;;;0.70;0.60;;;26.20;99.90;;;;;;5022141;28;20421;-71
2022/06/26 12:31:42;;;;;;;1.48;0.95;;;26.20;99.90;;;;;;5023065;28;20113;-71
2022/06/26 12:34:09;;;;;;;1.27;1.00;;;26.00;99.90;;;;;;5022732;28;20397;-70
2022/06/26 12:36:37;;;;;;;1.65;1.10;;;26.10;99.90;;;;;;5023017;28;20060;-70
2022/06/26 12:39:03;;;;;;;1.08;0.60;;;26.10;99.90;;;;;;5021986;28;20040;-70
2022/06/26 12:41:29;;;;;;;1.05;0.68;;;26.10;99.90;;;;;;5022876;28;20035;-69
2022/06/26 12:44:03;;;;;;;0.90;0.57;;;26.20;99.90;;;;;;5014874;28;20042;-70
2022/06/26 12:46:30;;;;;;;1.25;0.70;;;26.30;99.90;;;;;;5019620;28;20045;-69
2022/06/26 12:48:58;;;;;;;0.80;0.50;;;26.40;99.90;;;;;;5019377;28;20030;-69
2022/06/26 12:51:24;;;;;;;1.15;0.90;;;26.50;99.90;;;;;;5020593;28;20014;-68
2022/06/26 12:53:56;;;;;;;0.77;0.60;;;26.60;99.90;;;;;;5022600;28;20044;-69
2022/06/26 12:56:22;;;;;;;0.85;0.60;;;26.70;99.90;;;;;;5022578;28;20046;-68
2022/06/26 12:58:48;;;;;;;0.93;0.70;;;26.80;99.90;;;;;;5022436;28;20409;-69